sensor_id;sensor_type;location;lat;lon;timestamp;temperature;humidity
62904;DHT22;49000;50.698;13.322;2024-03-25T00:01:08;3.30;1.00
62904;DHT22;49000;50.698;13.322;2024-03-25T00:03:33;3.30;1.00
62904;DHT22;49000;50.698;13.322;2024-03-25T00:05:59;2.80;1.00
62904;DHT22;49000;50.698;13.322;2024-03-25T00:08:24;2.80;1.00
62904;DHT22;49000;50.698;13.322;2024-03-25T00:10:50;3.30;1.00
62904;DHT22;49000;50.698;13.322;2024-03-25T00:13:15;3.20;1.00
62904;DHT22;49000;50.698;13.322;2024-03-25T00:15:41;3.10;1.00
62904;DHT22;49000;50.698;13.322;2024-03-25T00:18:07;3.10;1.00
62904;DHT22;49000;50.698;13.322;2024-03-25T00:20:32;2.90;1.00
62904;DHT22;49000;50.698;13.322;2024-03-25T00:22:58;3.20;1.00
62904;DHT22;49000;50.698;13.322;2024-03-25T00:25:23;3.20;1.00
62904;DHT22;49000;50.698;13.322;2024-03-25T00:27:48;2.60;1.00
62904;DHT22;49000;50.698;13.322;2024-03-25T00:30:14;2.90;1.00
62904;DHT22;49000;50.698;13.322;2024-03-25T00:32:39;3.20;1.00
62904;DHT22;49000;50.698;13.322;2024-03-25T00:35:05;3.00;1.00
62904;DHT22;49000;50.698;13.322;2024-03-25T00:37:31;3.10;1.00
62904;DHT22;49000;50.698;13.322;2024-03-25T00:39:56;2.80;10.20
62904;DHT22;49000;50.698;13.322;2024-03-25T00:42:23;2.70;17.20
62904;DHT22;49000;50.698;13.322;2024-03-25T00:44:48;3.00;44.70
62904;DHT22;49000;50.698;13.322;2024-03-25T00:47:13;2.90;52.10
62904;DHT22;49000;50.698;13.322;2024-03-25T00:49:39;2.90;67.10
62904;DHT22;49000;50.698;13.322;2024-03-25T00:52:05;2.90;93.10
62904;DHT22;49000;50.698;13.322;2024-03-25T00:54:30;2.80;99.90
62904;DHT22;49000;50.698;13.322;2024-03-25T00:56:56;2.50;99.90
62904;DHT22;49000;50.698;13.322;2024-03-25T00:59:22;2.60;99.90
62904;DHT22;49000;50.698;13.322;2024-03-25T01:01:47;2.50;99.90
62904;DHT22;49000;50.698;13.322;2024-03-25T01:04:12;2.40;99.90
62904;DHT22;49000;50.698;13.322;2024-03-25T01:06:38;2.40;99.90
62904;DHT22;49000;50.698;13.322;2024-03-25T01:09:03;2.20;99.90
62904;DHT22;49000;50.698;13.322;2024-03-25T01:11:30;2.30;99.90
62904;DHT22;49000;50.698;13.322;2024-03-25T01:13:56;2.20;99.90
62904;DHT22;49000;50.698;13.322;2024-03-25T01:16:21;1.70;99.90
62904;DHT22;49000;50.698;13.322;2024-03-25T01:18:47;2.10;99.90
62904;DHT22;49000;50.698;13.322;2024-03-25T01:21:12;2.20;99.90
62904;DHT22;49000;50.698;13.322;2024-03-25T01:23:38;2.10;99.90
62904;DHT22;49000;50.698;13.322;2024-03-25T01:26:03;2.00;99.90
62904;DHT22;49000;50.698;13.322;2024-03-25T01:28:29;2.10;99.90
62904;DHT22;49000;50.698;13.322;2024-03-25T01:30:55;2.10;99.90
62904;DHT22;49000;50.698;13.322;2024-03-25T01:33:20;2.10;99.90
62904;DHT22;49000;50.698;13.322;2024-03-25T01:35:46;1.70;99.90
62904;DHT22;49000;50.698;13.322;2024-03-25T01:38:11;2.10;99.90
62904;DHT22;49000;50.698;13.322;2024-03-25T01:40:36;2.10;99.90
62904;DHT22;49000;50.698;13.322;2024-03-25T01:43:03;1.80;99.90
62904;DHT22;49000;50.698;13.322;2024-03-25T01:45:33;2.20;99.90
62904;DHT22;49000;50.698;13.322;2024-03-25T01:48:03;1.90;99.90
62904;DHT22;49000;50.698;13.322;2024-03-25T01:50:31;2.10;99.90
62904;DHT22;49000;50.698;13.322;2024-03-25T01:52:58;1.90;99.90
62904;DHT22;49000;50.698;13.322;2024-03-25T01:55:26;2.20;99.90
62904;DHT22;49000;50.698;13.322;2024-03-25T01:57:52;2.30;99.90
62904;DHT22;49000;50.698;13.322;2024-03-25T02:00:18;2.30;99.90
62904;DHT22;49000;50.698;13.322;2024-03-25T02:02:44;2.30;99.90
62904;DHT22;49000;50.698;13.322;2024-03-25T02:05:11;2.50;99.90
62904;DHT22;49000;50.698;13.322;2024-03-25T02:07:37;2.40;99.90
62904;DHT22;49000;50.698;13.322;2024-03-25T02:10:04;2.60;99.90
62904;DHT22;49000;50.698;13.322;2024-03-25T02:12:31;2.40;99.90
62904;DHT22;49000;50.698;13.322;2024-03-25T02:14:57;2.40;99.90
62904;DHT22;49000;50.698;13.322;2024-03-25T02:17:23;2.20;99.90
62904;DHT22;49000;50.698;13.322;2024-03-25T02:19:49;2.50;99.90
62904;DHT22;49000;50.698;13.322;2024-03-25T02:22:15;2.70;99.90
62904;DHT22;49000;50.698;13.322;2024-03-25T02:24:41;2.30;99.90
62904;DHT22;49000;50.698;13.322;2024-03-25T02:27:07;2.20;99.90
62904;DHT22;49000;50.698;13.322;2024-03-25T02:29:34;2.60;99.90
62904;DHT22;49000;50.698;13.322;2024-03-25T02:31:59;2.20;99.90
62904;DHT22;49000;50.698;13.322;2024-03-25T02:34:25;2.80;99.90
62904;DHT22;49000;50.698;13.322;2024-03-25T02:36:51;2.30;99.90
62904;DHT22;49000;50.698;13.322;2024-03-25T02:39:17;2.30;99.90
62904;DHT22;49000;50.698;13.322;2024-03-25T02:41:43;2.70;99.90
62904;DHT22;49000;50.698;13.322;2024-03-25T02:44:09;2.90;99.90
62904;DHT22;49000;50.698;13.322;2024-03-25T02:46:35;2.60;99.90
62904;DHT22;49000;50.698;13.322;2024-03-25T02:49:00;2.80;99.90
62904;DHT22;49000;50.698;13.322;2024-03-25T02:51:26;2.60;99.90
62904;DHT22;49000;50.698;13.322;2024-03-25T02:53:51;2.40;99.90
62904;DHT22;49000;50.698;13.322;2024-03-25T02:56:17;2.70;93.00
62904;DHT22;49000;50.698;13.322;2024-03-25T02:58:42;2.70;92.30
62904;DHT22;49000;50.698;13.322;2024-03-25T03:01:07;2.60;82.10
62904;DHT22;49000;50.698;13.322;2024-03-25T03:03:33;2.80;87.20
62904;DHT22;49000;50.698;13.322;2024-03-25T03:05:58;2.80;90.30
62904;DHT22;49000;50.698;13.322;2024-03-25T03:08:24;2.50;86.10
62904;DHT22;49000;50.698;13.322;2024-03-25T03:10:49;3.00;89.20
62904;DHT22;49000;50.698;13.322;2024-03-25T03:13:15;3.00;44.00
62904;DHT22;49000;50.698;13.322;2024-03-25T03:15:44;3.00;52.10
62904;DHT22;49000;50.698;13.322;2024-03-25T03:18:10;2.40;45.30
62904;DHT22;49000;50.698;13.322;2024-03-25T03:20:35;2.40;51.70
62904;DHT22;49000;50.698;13.322;2024-03-25T03:23:00;2.80;43.30
62904;DHT22;49000;50.698;13.322;2024-03-25T03:25:26;2.60;39.70
62904;DHT22;49000;50.698;13.322;2024-03-25T03:27:51;2.60;26.40
62904;DHT22;49000;50.698;13.322;2024-03-25T03:30:17;3.00;19.90
62904;DHT22;49000;50.698;13.322;2024-03-25T03:32:42;3.00;30.00
62904;DHT22;49000;50.698;13.322;2024-03-25T03:35:08;2.90;29.90
62904;DHT22;49000;50.698;13.322;2024-03-25T03:37:33;3.10;25.30
62904;DHT22;49000;50.698;13.322;2024-03-25T03:39:59;2.40;10.40
62904;DHT22;49000;50.698;13.322;2024-03-25T03:42:24;3.10;10.40
62904;DHT22;49000;50.698;13.322;2024-03-25T03:44:50;3.10;4.80
62904;DHT22;49000;50.698;13.322;2024-03-25T03:47:15;2.60;12.30
62904;DHT22;49000;50.698;13.322;2024-03-25T03:49:41;3.00;18.80
62904;DHT22;49000;50.698;13.322;2024-03-25T03:52:06;2.60;19.60
62904;DHT22;49000;50.698;13.322;2024-03-25T03:54:32;2.90;17.40
62904;DHT22;49000;50.698;13.322;2024-03-25T03:56:57;3.00;26.20
62904;DHT22;49000;50.698;13.322;2024-03-25T03:59:22;2.90;29.50
62904;DHT22;49000;50.698;13.322;2024-03-25T04:01:48;2.90;39.80
62904;DHT22;49000;50.698;13.322;2024-03-25T04:04:14;2.50;1.00
62904;DHT22;49000;50.698;13.322;2024-03-25T04:06:39;3.00;5.40
62904;DHT22;49000;50.698;13.322;2024-03-25T04:09:06;2.50;6.80
62904;DHT22;49000;50.698;13.322;2024-03-25T04:11:35;2.30;15.30
62904;DHT22;49000;50.698;13.322;2024-03-25T04:14:00;2.70;19.70
62904;DHT22;49000;50.698;13.322;2024-03-25T04:16:26;2.70;28.90
62904;DHT22;49000;50.698;13.322;2024-03-25T04:18:51;2.80;43.70
62904;DHT22;49000;50.698;13.322;2024-03-25T04:21:17;2.40;54.50
62904;DHT22;49000;50.698;13.322;2024-03-25T04:23:42;2.60;65.30
62904;DHT22;49000;50.698;13.322;2024-03-25T04:26:10;2.70;88.20
62904;DHT22;49000;50.698;13.322;2024-03-25T04:28:35;2.20;89.30
62904;DHT22;49000;50.698;13.322;2024-03-25T04:31:01;2.40;87.90
62904;DHT22;49000;50.698;13.322;2024-03-25T04:33:26;2.60;92.40
62904;DHT22;49000;50.698;13.322;2024-03-25T04:35:52;2.50;94.40
62904;DHT22;49000;50.698;13.322;2024-03-25T04:38:17;2.60;94.60
62904;DHT22;49000;50.698;13.322;2024-03-25T04:40:43;2.60;94.20
62904;DHT22;49000;50.698;13.322;2024-03-25T04:43:09;2.50;95.80
62904;DHT22;49000;50.698;13.322;2024-03-25T04:45:35;2.60;93.70
62904;DHT22;49000;50.698;13.322;2024-03-25T04:48:00;2.20;92.10
62904;DHT22;49000;50.698;13.322;2024-03-25T04:50:26;2.20;91.00
62904;DHT22;49000;50.698;13.322;2024-03-25T04:52:51;2.30;90.00
62904;DHT22;49000;50.698;13.322;2024-03-25T04:55:17;2.30;92.10
62904;DHT22;49000;50.698;13.322;2024-03-25T04:57:43;2.60;90.00
62904;DHT22;49000;50.698;13.322;2024-03-25T05:00:09;2.20;88.30
62904;DHT22;49000;50.698;13.322;2024-03-25T05:02:37;2.60;92.30
62904;DHT22;49000;50.698;13.322;2024-03-25T05:05:03;2.60;94.10
62904;DHT22;49000;50.698;13.322;2024-03-25T05:07:28;2.50;92.30
62904;DHT22;49000;50.698;13.322;2024-03-25T05:09:54;2.40;94.50
62904;DHT22;49000;50.698;13.322;2024-03-25T05:12:20;2.20;99.90
62904;DHT22;49000;50.698;13.322;2024-03-25T05:14:45;2.30;99.90
62904;DHT22;49000;50.698;13.322;2024-03-25T05:17:11;2.40;99.90
62904;DHT22;49000;50.698;13.322;2024-03-25T05:19:36;1.70;99.90
62904;DHT22;49000;50.698;13.322;2024-03-25T05:22:02;1.90;99.90
62904;DHT22;49000;50.698;13.322;2024-03-25T05:24:27;2.20;99.90
62904;DHT22;49000;50.698;13.322;2024-03-25T05:26:53;1.80;99.90
62904;DHT22;49000;50.698;13.322;2024-03-25T05:29:19;2.10;99.90
62904;DHT22;49000;50.698;13.322;2024-03-25T05:31:56;2.30;99.90
62904;DHT22;49000;50.698;13.322;2024-03-25T05:34:23;2.30;99.90
62904;DHT22;49000;50.698;13.322;2024-03-25T05:36:48;2.60;99.90
62904;DHT22;49000;50.698;13.322;2024-03-25T05:39:14;2.40;99.90
62904;DHT22;49000;50.698;13.322;2024-03-25T05:41:39;2.60;99.90
62904;DHT22;49000;50.698;13.322;2024-03-25T05:44:05;2.00;99.90
62904;DHT22;49000;50.698;13.322;2024-03-25T05:46:30;2.00;99.90
62904;DHT22;49000;50.698;13.322;2024-03-25T05:48:56;2.40;99.90
62904;DHT22;49000;50.698;13.322;2024-03-25T05:51:21;2.40;99.90
62904;DHT22;49000;50.698;13.322;2024-03-25T05:53:47;2.60;99.90
62904;DHT22;49000;50.698;13.322;2024-03-25T05:56:12;2.10;99.90
62904;DHT22;49000;50.698;13.322;2024-03-25T05:58:38;2.10;99.90
62904;DHT22;49000;50.698;13.322;2024-03-25T06:01:03;2.30;99.90
62904;DHT22;49000;50.698;13.322;2024-03-25T06:03:29;2.10;99.90
62904;DHT22;49000;50.698;13.322;2024-03-25T06:05:56;2.50;99.90
62904;DHT22;49000;50.698;13.322;2024-03-25T06:08:21;2.50;99.90
62904;DHT22;49000;50.698;13.322;2024-03-25T06:10:50;2.40;99.90
62904;DHT22;49000;50.698;13.322;2024-03-25T06:13:16;2.30;99.90
62904;DHT22;49000;50.698;13.322;2024-03-25T06:15:41;2.30;99.90
62904;DHT22;49000;50.698;13.322;2024-03-25T06:18:07;2.80;99.90
62904;DHT22;49000;50.698;13.322;2024-03-25T06:20:32;3.00;99.90
62904;DHT22;49000;50.698;13.322;2024-03-25T06:22:58;2.40;99.90
62904;DHT22;49000;50.698;13.322;2024-03-25T06:25:23;2.60;99.90
62904;DHT22;49000;50.698;13.322;2024-03-25T06:27:49;2.60;99.90
62904;DHT22;49000;50.698;13.322;2024-03-25T06:30:14;2.60;99.90
62904;DHT22;49000;50.698;13.322;2024-03-25T06:32:58;2.30;99.90
62904;DHT22;49000;50.698;13.322;2024-03-25T06:35:43;2.50;99.90
62904;DHT22;49000;50.698;13.322;2024-03-25T06:38:09;2.30;99.90
62904;DHT22;49000;50.698;13.322;2024-03-25T06:40:35;2.40;99.90
62904;DHT22;49000;50.698;13.322;2024-03-25T06:43:00;2.40;99.90
62904;DHT22;49000;50.698;13.322;2024-03-25T06:45:26;2.00;99.90
62904;DHT22;49000;50.698;13.322;2024-03-25T06:47:51;1.80;99.90
62904;DHT22;49000;50.698;13.322;2024-03-25T06:50:17;2.20;99.90
62904;DHT22;49000;50.698;13.322;2024-03-25T06:52:42;2.30;99.90
62904;DHT22;49000;50.698;13.322;2024-03-25T06:55:08;1.80;99.90
62904;DHT22;49000;50.698;13.322;2024-03-25T06:57:33;1.60;99.90
62904;DHT22;49000;50.698;13.322;2024-03-25T06:59:59;1.50;99.90
62904;DHT22;49000;50.698;13.322;2024-03-25T07:02:24;2.10;99.90
62904;DHT22;49000;50.698;13.322;2024-03-25T07:04:50;1.50;99.90
62904;DHT22;49000;50.698;13.322;2024-03-25T07:07:15;1.60;99.90
62904;DHT22;49000;50.698;13.322;2024-03-25T07:09:41;2.00;99.90
62904;DHT22;49000;50.698;13.322;2024-03-25T07:12:07;1.60;99.90
62904;DHT22;49000;50.698;13.322;2024-03-25T07:14:32;2.00;99.90
62904;DHT22;49000;50.698;13.322;2024-03-25T07:16:58;1.90;99.90
62904;DHT22;49000;50.698;13.322;2024-03-25T07:19:23;2.30;99.90
62904;DHT22;49000;50.698;13.322;2024-03-25T07:21:49;2.50;99.90
62904;DHT22;49000;50.698;13.322;2024-03-25T07:24:14;2.50;99.90
62904;DHT22;49000;50.698;13.322;2024-03-25T07:26:39;2.40;99.90
62904;DHT22;49000;50.698;13.322;2024-03-25T07:29:05;2.50;99.90
62904;DHT22;49000;50.698;13.322;2024-03-25T07:31:30;2.50;99.90
62904;DHT22;49000;50.698;13.322;2024-03-25T07:33:56;3.10;99.90
62904;DHT22;49000;50.698;13.322;2024-03-25T07:36:21;3.10;99.90
62904;DHT22;49000;50.698;13.322;2024-03-25T07:38:47;3.30;99.90
62904;DHT22;49000;50.698;13.322;2024-03-25T07:41:12;3.50;99.90
62904;DHT22;49000;50.698;13.322;2024-03-25T07:43:38;3.40;99.90
62904;DHT22;49000;50.698;13.322;2024-03-25T07:46:03;3.50;99.90
62904;DHT22;49000;50.698;13.322;2024-03-25T07:48:30;3.40;99.90
62904;DHT22;49000;50.698;13.322;2024-03-25T07:50:55;3.30;99.90
62904;DHT22;49000;50.698;13.322;2024-03-25T07:53:21;3.50;99.90
62904;DHT22;49000;50.698;13.322;2024-03-25T07:55:46;3.10;93.60
62904;DHT22;49000;50.698;13.322;2024-03-25T07:58:12;3.00;96.40
62904;DHT22;49000;50.698;13.322;2024-03-25T08:00:37;3.60;95.90
62904;DHT22;49000;50.698;13.322;2024-03-25T08:03:03;3.60;98.10
62904;DHT22;49000;50.698;13.322;2024-03-25T08:05:30;3.40;97.10
62904;DHT22;49000;50.698;13.322;2024-03-25T08:07:55;3.70;91.00
62904;DHT22;49000;50.698;13.322;2024-03-25T08:10:21;3.10;95.70
62904;DHT22;49000;50.698;13.322;2024-03-25T08:12:46;3.20;92.60
62904;DHT22;49000;50.698;13.322;2024-03-25T08:15:12;3.70;52.10
62904;DHT22;49000;50.698;13.322;2024-03-25T08:17:38;3.60;5.10
62904;DHT22;49000;50.698;13.322;2024-03-25T08:20:04;3.70;23.80
62904;DHT22;49000;50.698;13.322;2024-03-25T08:22:30;3.70;42.10
62904;DHT22;49000;50.698;13.322;2024-03-25T08:24:56;3.70;26.90
62904;DHT22;49000;50.698;13.322;2024-03-25T08:27:21;3.20;17.90
62904;DHT22;49000;50.698;13.322;2024-03-25T08:29:47;3.80;1.00
62904;DHT22;49000;50.698;13.322;2024-03-25T08:32:14;3.80;1.00
62904;DHT22;49000;50.698;13.322;2024-03-25T08:34:39;3.60;3.80
62904;DHT22;49000;50.698;13.322;2024-03-25T08:37:05;3.70;1.00
62904;DHT22;49000;50.698;13.322;2024-03-25T08:39:30;3.40;1.00
62904;DHT22;49000;50.698;13.322;2024-03-25T08:41:56;3.80;1.00
62904;DHT22;49000;50.698;13.322;2024-03-25T08:44:21;3.40;1.00
62904;DHT22;49000;50.698;13.322;2024-03-25T08:46:47;3.90;1.00
62904;DHT22;49000;50.698;13.322;2024-03-25T08:49:12;3.40;1.00
62904;DHT22;49000;50.698;13.322;2024-03-25T08:51:38;3.40;1.00
62904;DHT22;49000;50.698;13.322;2024-03-25T08:54:03;3.50;1.00
62904;DHT22;49000;50.698;13.322;2024-03-25T08:56:29;4.10;1.00
62904;DHT22;49000;50.698;13.322;2024-03-25T08:58:55;3.60;1.00
62904;DHT22;49000;50.698;13.322;2024-03-25T09:01:22;3.80;1.00
62904;DHT22;49000;50.698;13.322;2024-03-25T09:03:49;4.30;1.00
62904;DHT22;49000;50.698;13.322;2024-03-25T09:06:15;4.10;1.00
62904;DHT22;49000;50.698;13.322;2024-03-25T09:08:41;3.70;1.00
62904;DHT22;49000;50.698;13.322;2024-03-25T09:11:25;3.80;1.00
62904;DHT22;49000;50.698;13.322;2024-03-25T09:13:52;4.00;1.00
62904;DHT22;49000;50.698;13.322;2024-03-25T09:16:17;4.30;1.00
62904;DHT22;49000;50.698;13.322;2024-03-25T09:18:43;4.20;99.90
62904;DHT22;49000;50.698;13.322;2024-03-25T09:21:08;3.90;99.90
62904;DHT22;49000;50.698;13.322;2024-03-25T09:23:34;4.00;99.90
62904;DHT22;49000;50.698;13.322;2024-03-25T09:25:59;4.40;99.90
62904;DHT22;49000;50.698;13.322;2024-03-25T09:28:25;3.80;99.90
62904;DHT22;49000;50.698;13.322;2024-03-25T09:30:50;4.00;99.90
62904;DHT22;49000;50.698;13.322;2024-03-25T09:33:16;4.20;99.90
62904;DHT22;49000;50.698;13.322;2024-03-25T09:35:42;4.30;99.90
62904;DHT22;49000;50.698;13.322;2024-03-25T09:38:07;4.40;99.90
62904;DHT22;49000;50.698;13.322;2024-03-25T09:40:40;4.80;99.90
62904;DHT22;49000;50.698;13.322;2024-03-25T09:43:11;5.70;99.90
62904;DHT22;49000;50.698;13.322;2024-03-25T09:45:39;5.70;99.90
62904;DHT22;49000;50.698;13.322;2024-03-25T09:48:06;6.20;1.00
62904;DHT22;49000;50.698;13.322;2024-03-25T09:50:32;6.20;1.00
62904;DHT22;49000;50.698;13.322;2024-03-25T09:52:57;5.80;1.00
62904;DHT22;49000;50.698;13.322;2024-03-25T09:55:23;5.90;1.00
62904;DHT22;49000;50.698;13.322;2024-03-25T09:57:49;5.90;1.00
62904;DHT22;49000;50.698;13.322;2024-03-25T10:00:14;6.20;1.00
62904;DHT22;49000;50.698;13.322;2024-03-25T10:02:41;6.70;1.00
62904;DHT22;49000;50.698;13.322;2024-03-25T10:05:07;6.60;1.00
62904;DHT22;49000;50.698;13.322;2024-03-25T10:07:34;6.20;1.00
62904;DHT22;49000;50.698;13.322;2024-03-25T10:10:03;5.80;1.00
62904;DHT22;49000;50.698;13.322;2024-03-25T10:12:28;5.90;1.00
62904;DHT22;49000;50.698;13.322;2024-03-25T10:14:53;5.80;1.00
62904;DHT22;49000;50.698;13.322;2024-03-25T10:17:19;5.50;1.00
62904;DHT22;49000;50.698;13.322;2024-03-25T10:19:44;5.70;1.00
62904;DHT22;49000;50.698;13.322;2024-03-25T10:22:10;5.00;1.00
62904;DHT22;49000;50.698;13.322;2024-03-25T10:24:45;5.20;1.00
62904;DHT22;49000;50.698;13.322;2024-03-25T10:27:21;4.80;1.00
62904;DHT22;49000;50.698;13.322;2024-03-25T10:29:47;4.80;1.00
62904;DHT22;49000;50.698;13.322;2024-03-25T10:32:13;5.10;1.00
62904;DHT22;49000;50.698;13.322;2024-03-25T10:34:39;4.70;1.00
62904;DHT22;49000;50.698;13.322;2024-03-25T10:37:05;4.70;1.00
62904;DHT22;49000;50.698;13.322;2024-03-25T10:39:33;4.70;1.00
62904;DHT22;49000;50.698;13.322;2024-03-25T10:42:05;4.70;1.00
62904;DHT22;49000;50.698;13.322;2024-03-25T10:44:31;4.80;1.00
62904;DHT22;49000;50.698;13.322;2024-03-25T10:47:02;4.90;1.00
62904;DHT22;49000;50.698;13.322;2024-03-25T10:49:42;5.30;1.00
62904;DHT22;49000;50.698;13.322;2024-03-25T10:52:14;5.20;1.00
62904;DHT22;49000;50.698;13.322;2024-03-25T10:54:41;5.30;1.00
62904;DHT22;49000;50.698;13.322;2024-03-25T10:57:09;5.70;1.00
62904;DHT22;49000;50.698;13.322;2024-03-25T10:59:35;5.30;1.00
62904;DHT22;49000;50.698;13.322;2024-03-25T11:02:09;5.50;1.00
62904;DHT22;49000;50.698;13.322;2024-03-25T11:04:35;5.80;99.90
62904;DHT22;49000;50.698;13.322;2024-03-25T11:07:12;5.60;99.90
62904;DHT22;49000;50.698;13.322;2024-03-25T11:09:37;5.90;1.00
62904;DHT22;49000;50.698;13.322;2024-03-25T11:12:03;6.10;1.00
62904;DHT22;49000;50.698;13.322;2024-03-25T11:14:29;6.60;99.90
62904;DHT22;49000;50.698;13.322;2024-03-25T11:16:57;6.30;99.90
62904;DHT22;49000;50.698;13.322;2024-03-25T11:19:26;6.20;99.90
62904;DHT22;49000;50.698;13.322;2024-03-25T11:21:52;6.10;99.90
62904;DHT22;49000;50.698;13.322;2024-03-25T11:24:30;6.00;99.90
62904;DHT22;49000;50.698;13.322;2024-03-25T11:26:56;5.80;99.90
62904;DHT22;49000;50.698;13.322;2024-03-25T11:29:22;5.70;99.90
62904;DHT22;49000;50.698;13.322;2024-03-25T11:31:49;5.50;99.90
62904;DHT22;49000;50.698;13.322;2024-03-25T11:34:15;5.90;99.90
62904;DHT22;49000;50.698;13.322;2024-03-25T11:36:40;5.50;99.90
62904;DHT22;49000;50.698;13.322;2024-03-25T11:39:06;6.10;99.90
62904;DHT22;49000;50.698;13.322;2024-03-25T11:41:44;6.20;99.90
62904;DHT22;49000;50.698;13.322;2024-03-25T11:44:10;6.50;99.90
62904;DHT22;49000;50.698;13.322;2024-03-25T11:46:39;6.30;99.90
62904;DHT22;49000;50.698;13.322;2024-03-25T11:49:16;6.70;99.90
62904;DHT22;49000;50.698;13.322;2024-03-25T11:51:45;6.60;99.90
62904;DHT22;49000;50.698;13.322;2024-03-25T11:54:12;6.90;99.90
62904;DHT22;49000;50.698;13.322;2024-03-25T11:56:38;6.90;99.90
62904;DHT22;49000;50.698;13.322;2024-03-25T11:59:03;6.90;99.90
62904;DHT22;49000;50.698;13.322;2024-03-25T12:01:32;6.80;99.90
62904;DHT22;49000;50.698;13.322;2024-03-25T12:03:57;7.40;99.90
62904;DHT22;49000;50.698;13.322;2024-03-25T12:06:23;7.60;99.90
62904;DHT22;49000;50.698;13.322;2024-03-25T12:08:48;7.70;99.90
62904;DHT22;49000;50.698;13.322;2024-03-25T12:11:33;7.60;99.90
62904;DHT22;49000;50.698;13.322;2024-03-25T12:13:59;7.50;99.90
62904;DHT22;49000;50.698;13.322;2024-03-25T12:16:25;7.60;99.90
62904;DHT22;49000;50.698;13.322;2024-03-25T12:18:51;7.70;99.90
62904;DHT22;49000;50.698;13.322;2024-03-25T12:21:18;7.70;99.90
62904;DHT22;49000;50.698;13.322;2024-03-25T12:23:44;7.60;99.90
62904;DHT22;49000;50.698;13.322;2024-03-25T12:26:09;7.30;99.90
62904;DHT22;49000;50.698;13.322;2024-03-25T12:28:35;7.10;99.90
62904;DHT22;49000;50.698;13.322;2024-03-25T12:31:06;7.70;99.90
62904;DHT22;49000;50.698;13.322;2024-03-25T12:33:40;7.20;99.90
62904;DHT22;49000;50.698;13.322;2024-03-25T12:36:06;6.60;99.90
62904;DHT22;49000;50.698;13.322;2024-03-25T12:38:32;6.90;99.90
62904;DHT22;49000;50.698;13.322;2024-03-25T12:41:05;6.70;99.90
62904;DHT22;49000;50.698;13.322;2024-03-25T12:43:32;6.80;99.90
62904;DHT22;49000;50.698;13.322;2024-03-25T12:45:58;6.70;99.90
62904;DHT22;49000;50.698;13.322;2024-03-25T12:48:24;7.20;99.90
62904;DHT22;49000;50.698;13.322;2024-03-25T12:50:50;6.80;99.90
62904;DHT22;49000;50.698;13.322;2024-03-25T12:53:18;7.00;99.90
62904;DHT22;49000;50.698;13.322;2024-03-25T12:55:47;8.10;99.90
62904;DHT22;49000;50.698;13.322;2024-03-25T12:58:13;8.60;99.90
62904;DHT22;49000;50.698;13.322;2024-03-25T13:00:38;8.80;99.90
62904;DHT22;49000;50.698;13.322;2024-03-25T13:03:10;8.60;99.90
62904;DHT22;49000;50.698;13.322;2024-03-25T13:05:36;8.50;99.90
62904;DHT22;49000;50.698;13.322;2024-03-25T13:08:02;8.80;99.90
62904;DHT22;49000;50.698;13.322;2024-03-25T13:10:28;8.90;99.90
62904;DHT22;49000;50.698;13.322;2024-03-25T13:12:54;8.90;99.90
62904;DHT22;49000;50.698;13.322;2024-03-25T13:15:20;8.70;99.90
62904;DHT22;49000;50.698;13.322;2024-03-25T13:17:45;8.60;99.90
62904;DHT22;49000;50.698;13.322;2024-03-25T13:20:12;8.70;99.90
62904;DHT22;49000;50.698;13.322;2024-03-25T13:22:38;8.90;99.90
62904;DHT22;49000;50.698;13.322;2024-03-25T13:25:05;9.60;99.90
62904;DHT22;49000;50.698;13.322;2024-03-25T13:27:31;10.00;99.90
62904;DHT22;49000;50.698;13.322;2024-03-25T13:29:56;9.60;99.90
62904;DHT22;49000;50.698;13.322;2024-03-25T13:32:22;9.40;99.90
62904;DHT22;49000;50.698;13.322;2024-03-25T13:34:48;9.20;99.90
62904;DHT22;49000;50.698;13.322;2024-03-25T13:37:14;9.00;99.90
62904;DHT22;49000;50.698;13.322;2024-03-25T13:39:39;9.00;99.90
62904;DHT22;49000;50.698;13.322;2024-03-25T13:42:04;9.00;99.90
62904;DHT22;49000;50.698;13.322;2024-03-25T13:44:30;8.80;99.90
62904;DHT22;49000;50.698;13.322;2024-03-25T13:46:56;8.70;99.90
62904;DHT22;49000;50.698;13.322;2024-03-25T13:49:21;8.90;99.90
62904;DHT22;49000;50.698;13.322;2024-03-25T13:51:51;9.20;99.90
62904;DHT22;49000;50.698;13.322;2024-03-25T13:54:20;9.20;99.90
62904;DHT22;49000;50.698;13.322;2024-03-25T13:56:46;9.20;99.90
62904;DHT22;49000;50.698;13.322;2024-03-25T13:59:11;9.30;99.90
62904;DHT22;49000;50.698;13.322;2024-03-25T14:01:37;9.90;99.90
62904;DHT22;49000;50.698;13.322;2024-03-25T14:04:02;10.20;99.90
62904;DHT22;49000;50.698;13.322;2024-03-25T14:06:29;9.70;99.90
62904;DHT22;49000;50.698;13.322;2024-03-25T14:08:54;9.70;99.90
62904;DHT22;49000;50.698;13.322;2024-03-25T14:11:20;9.60;99.90
62904;DHT22;49000;50.698;13.322;2024-03-25T14:13:45;9.90;99.90
62904;DHT22;49000;50.698;13.322;2024-03-25T14:16:11;10.00;3.00
62904;DHT22;49000;50.698;13.322;2024-03-25T14:18:36;10.50;1.00
62904;DHT22;49000;50.698;13.322;2024-03-25T14:21:02;10.20;1.00
62904;DHT22;49000;50.698;13.322;2024-03-25T14:23:28;10.80;9.70
62904;DHT22;49000;50.698;13.322;2024-03-25T14:25:53;11.00;1.00
62904;DHT22;49000;50.698;13.322;2024-03-25T14:28:19;10.90;1.00
62904;DHT22;49000;50.698;13.322;2024-03-25T14:30:44;10.40;1.00
62904;DHT22;49000;50.698;13.322;2024-03-25T14:33:10;10.10;1.00
62904;DHT22;49000;50.698;13.322;2024-03-25T14:35:35;10.00;1.00
62904;DHT22;49000;50.698;13.322;2024-03-25T14:38:01;9.90;1.00
62904;DHT22;49000;50.698;13.322;2024-03-25T14:40:26;9.90;1.00
62904;DHT22;49000;50.698;13.322;2024-03-25T14:42:52;10.20;1.00
62904;DHT22;49000;50.698;13.322;2024-03-25T14:45:17;11.20;11.70
62904;DHT22;49000;50.698;13.322;2024-03-25T14:47:43;11.60;1.00
62904;DHT22;49000;50.698;13.322;2024-03-25T14:50:09;11.50;1.00
62904;DHT22;49000;50.698;13.322;2024-03-25T14:52:35;12.30;1.00
62904;DHT22;49000;50.698;13.322;2024-03-25T14:55:01;12.60;1.00
62904;DHT22;49000;50.698;13.322;2024-03-25T14:57:27;13.10;1.00
62904;DHT22;49000;50.698;13.322;2024-03-25T14:59:52;12.90;1.00
62904;DHT22;49000;50.698;13.322;2024-03-25T15:02:17;12.80;1.00
62904;DHT22;49000;50.698;13.322;2024-03-25T15:04:43;13.40;1.00
62904;DHT22;49000;50.698;13.322;2024-03-25T15:07:11;13.40;1.00
62904;DHT22;49000;50.698;13.322;2024-03-25T15:09:37;12.90;1.00
62904;DHT22;49000;50.698;13.322;2024-03-25T15:12:03;12.30;1.00
62904;DHT22;49000;50.698;13.322;2024-03-25T15:14:29;12.00;1.00
62904;DHT22;49000;50.698;13.322;2024-03-25T15:16:56;11.90;1.00
62904;DHT22;49000;50.698;13.322;2024-03-25T15:19:23;11.50;1.00
62904;DHT22;49000;50.698;13.322;2024-03-25T15:21:49;10.90;1.00
62904;DHT22;49000;50.698;13.322;2024-03-25T15:24:14;10.70;1.00
62904;DHT22;49000;50.698;13.322;2024-03-25T15:26:40;10.70;1.00
62904;DHT22;49000;50.698;13.322;2024-03-25T15:29:05;10.80;1.00